M\v Black Rhino — V7TR7 — position and weather

sailwx.info

Track history (hours):
 
Tides and Currents Weather Stations Pressure Air Temp Water Temp Dewpoint Dewpoint Depression Visibility Wind Speed Wind Dir Waves Ship Positions

M\v Black Rhino

Last reported at 2016-Jun-29 03:31 UTC. Time now 2016-Jun-29 03:50 UTC.
Position S 29°52' E 031°03'.

Length 100 m; draft 4.6 m.

Type: Ship. MMSI: 538090408.

Date/timePositionNaut miles runAvg speedWind from/ knotsBaromVisibWave heightAir tempDewpointWater temp
2016-Jun-29 03:31S 29°52' E 031°03'0 0.0
2016-Jun-29 02:31S 29°52' E 031°03'4 3.8
2016-Jun-29 01:33S 29°50' E 031°05'3 2.9
2016-Jun-29 00:25S 29°48' E 031°09'1 1.3
2016-Jun-28 23:33S 29°49' E 031°09'3 3.0
2016-Jun-28 22:33S 29°48' E 031°06'3 3.3
2016-Jun-28 21:33S 29°45' E 031°07'0 0.1
2016-Jun-28 20:33S 29°45' E 031°07'0 0.0
2016-Jun-28 19:33S 29°45' E 031°07'0 0.0
2016-Jun-28 18:33S 29°45' E 031°07'0 0.0
2016-Jun-28 17:33S 29°45' E 031°07'1 1.0
2016-Jun-28 16:34S 29°46' E 031°07'1 0.5
2016-Jun-28 15:33S 29°46' E 031°07'0 0.4
2016-Jun-28 14:33S 29°46' E 031°07'6 6.4
2016-Jun-28 13:33S 29°45' E 031°14'1111.0
2016-Jun-28 12:33S 29°36' E 031°23'1111.0
2016-Jun-28 11:33S 29°29' E 031°32'1111.3
2016-Jun-28 10:33S 29°22' E 031°42'  
2016-Jun-24 12:07S 29°52' E 031°03'0 0.0
2016-Jun-24 11:31S 29°52' E 031°03'0 0.0
2016-Jun-24 10:31S 29°52' E 031°03'0 0.0
2016-Jun-24 09:31S 29°52' E 031°03'0 0.0
2016-Jun-24 08:31S 29°52' E 031°03'0 0.0
2016-Jun-24 07:31S 29°52' E 031°03'0 0.0
2016-Jun-24 04:31S 29°52' E 031°03'0 0.0
2016-Jun-24 03:31S 29°52' E 031°03'0 0.0
2016-Jun-24 02:25S 29°52' E 031°03'0 0.0
2016-Jun-24 01:28S 29°52' E 031°03'0 0.0
2016-Jun-24 00:31S 29°52' E 031°03'0 0.0
2016-Jun-23 23:31S 29°52' E 031°03'0 0.0
2016-Jun-23 22:31S 29°52' E 031°03'0 0.0
2016-Jun-23 21:31S 29°52' E 031°03'0 0.0
2016-Jun-23 20:28S 29°52' E 031°03'0 0.0
2016-Jun-23 19:31S 29°52' E 031°03'0 0.0
2016-Jun-23 18:31S 29°52' E 031°03'0 0.0
2016-Jun-23 17:31S 29°52' E 031°03'0 0.0
2016-Jun-23 16:31S 29°52' E 031°03'0 0.0
2016-Jun-23 15:31S 29°52' E 031°03'0 0.0
2016-Jun-23 14:31S 29°52' E 031°03'0 0.0
2016-Jun-23 13:31S 29°52' E 031°03'0 0.0
2016-Jun-23 12:31S 29°52' E 031°03'0 0.0
2016-Jun-23 11:31S 29°52' E 031°03'0 0.0
2016-Jun-23 10:31S 29°52' E 031°03'0 0.0
2016-Jun-23 09:31S 29°52' E 031°03'0 0.0
2016-Jun-23 08:31S 29°52' E 031°03'0 0.0
2016-Jun-23 07:31S 29°52' E 031°03'0 0.0
2016-Jun-23 05:31S 29°52' E 031°03'0 0.0
2016-Jun-23 04:31S 29°52' E 031°03'0 0.0
2016-Jun-23 03:31S 29°52' E 031°03'0 0.0
2016-Jun-23 02:31S 29°52' E 031°03'0 0.0
2016-Jun-23 01:31S 29°52' E 031°03'0 0.0
2016-Jun-23 00:31S 29°52' E 031°03'0 0.0
2016-Jun-22 23:31S 29°52' E 031°03'0 0.0
2016-Jun-22 22:31S 29°52' E 031°03'0 0.0
2016-Jun-22 21:31S 29°52' E 031°03'0 0.0
2016-Jun-22 20:31S 29°52' E 031°03'0 0.0
2016-Jun-22 19:31S 29°52' E 031°03'0 0.0
2016-Jun-22 18:31S 29°52' E 031°03'0 0.0
2016-Jun-22 17:28S 29°52' E 031°03'0 0.0
2016-Jun-22 16:31S 29°52' E 031°03'0 0.0
2016-Jun-22 15:31S 29°52' E 031°03'0 0.0
2016-Jun-22 14:31S 29°52' E 031°03'0 0.0
2016-Jun-22 13:31S 29°52' E 031°03'0 0.0
2016-Jun-22 12:31S 29°52' E 031°03'0 0.0
2016-Jun-22 11:31S 29°52' E 031°03'0 0.0
2016-Jun-22 10:25S 29°52' E 031°03'0 0.0
2016-Jun-22 09:31S 29°52' E 031°03'0 0.0
2016-Jun-22 08:31S 29°52' E 031°03'0 0.0
2016-Jun-22 07:31S 29°52' E 031°03'0 0.0
2016-Jun-22 06:34S 29°52' E 031°03'0 0.0
2016-Jun-22 05:31S 29°52' E 031°03'0 0.0
2016-Jun-22 04:31S 29°52' E 031°03'0 0.0
2016-Jun-22 03:31S 29°52' E 031°03'0 0.0
2016-Jun-22 02:28S 29°52' E 031°03'0 0.0
2016-Jun-22 01:31S 29°52' E 031°03'0 0.0
2016-Jun-22 00:31S 29°52' E 031°03'0 0.0
2016-Jun-21 23:31S 29°52' E 031°03'0 0.0
2016-Jun-21 22:31S 29°52' E 031°03'0 0.0
2016-Jun-21 21:31S 29°52' E 031°03'0 0.0
2016-Jun-21 20:31S 29°52' E 031°03'0 0.0
2016-Jun-21 19:31S 29°52' E 031°03'0 0.0
2016-Jun-21 18:31S 29°52' E 031°03'0 0.0
2016-Jun-21 17:31S 29°52' E 031°03'0 0.0
2016-Jun-21 16:31S 29°52' E 031°03'0 0.0
2016-Jun-21 15:31S 29°52' E 031°03'0 0.0
2016-Jun-21 14:31S 29°52' E 031°03'0 0.0
2016-Jun-21 13:31S 29°52' E 031°03'0 0.0
2016-Jun-21 12:31S 29°52' E 031°03'0 0.0
2016-Jun-21 11:25S 29°52' E 031°03'0 0.0
2016-Jun-21 10:31S 29°52' E 031°03'0 0.0
2016-Jun-21 09:31S 29°52' E 031°03'0 0.0
2016-Jun-21 08:31S 29°52' E 031°03'0 0.0
2016-Jun-21 07:31S 29°52' E 031°03'0 0.0
2016-Jun-21 04:31S 29°52' E 031°03'0 0.0
2016-Jun-21 03:31S 29°52' E 031°03'0 0.0
2016-Jun-21 02:25S 29°52' E 031°03'0 0.0
2016-Jun-21 01:31S 29°52' E 031°03'0 0.0
2016-Jun-21 00:31S 29°52' E 031°03'0 0.0
2016-Jun-20 23:31S 29°52' E 031°03'0 0.0
2016-Jun-20 22:31S 29°52' E 031°03'0 0.0
2016-Jun-20 21:31S 29°52' E 031°03'0 0.0
2016-Jun-20 20:31S 29°52' E 031°03'0 0.0
2016-Jun-20 19:31S 29°52' E 031°03'0 0.0
2016-Jun-20 18:31S 29°52' E 031°03'0 0.0
2016-Jun-20 17:31S 29°52' E 031°03'0 0.0
2016-Jun-20 16:31S 29°52' E 031°03'0 0.0
2016-Jun-20 15:31S 29°52' E 031°03'0 0.0
2016-Jun-20 14:34S 29°52' E 031°03'0 0.0
2016-Jun-20 13:31S 29°52' E 031°03'0 0.0
2016-Jun-20 12:31S 29°52' E 031°03'0 0.0
2016-Jun-20 11:31S 29°52' E 031°03'0 0.0
2016-Jun-20 10:31S 29°52' E 031°03'0 0.0
2016-Jun-20 09:31S 29°52' E 031°03'0 0.0
2016-Jun-20 08:31S 29°52' E 031°03'0 0.0
2016-Jun-20 07:31S 29°52' E 031°03'0 0.0
2016-Jun-20 06:31S 29°52' E 031°03'0 0.0
2016-Jun-20 05:31S 29°52' E 031°03'0 0.0
2016-Jun-20 04:31S 29°52' E 031°03'0 0.0
2016-Jun-20 03:31S 29°52' E 031°03'0 0.0
2016-Jun-20 02:31S 29°52' E 031°03'0 0.0
2016-Jun-20 01:31S 29°52' E 031°03'0 0.0
2016-Jun-20 00:31S 29°52' E 031°03'0 0.0
2016-Jun-19 23:31S 29°52' E 031°03'0 0.0
2016-Jun-19 22:31S 29°52' E 031°03'0 0.0
2016-Jun-19 21:31S 29°52' E 031°03'0 0.0
2016-Jun-19 20:31S 29°52' E 031°03'0 0.0
2016-Jun-19 19:31S 29°52' E 031°03'0 0.0
2016-Jun-19 18:31S 29°52' E 031°03'0 0.0
2016-Jun-19 17:31S 29°52' E 031°03'0 0.0
2016-Jun-19 16:31S 29°52' E 031°03'0 0.0
2016-Jun-19 15:31S 29°52' E 031°03'0 0.0
2016-Jun-19 14:31S 29°52' E 031°03'0 0.0
2016-Jun-19 13:31S 29°52' E 031°03'0 0.0
2016-Jun-19 12:31S 29°52' E 031°03'0 0.0
2016-Jun-19 11:31S 29°52' E 031°03'0 0.0
2016-Jun-19 10:31S 29°52' E 031°03'0 0.0
2016-Jun-19 09:31S 29°52' E 031°03'0 0.0
2016-Jun-19 08:31S 29°52' E 031°03'0 0.0
2016-Jun-19 07:31S 29°52' E 031°03'0 0.0
2016-Jun-19 06:31S 29°52' E 031°03'0 0.0
2016-Jun-19 05:31S 29°52' E 031°03'0 0.0
2016-Jun-19 04:31S 29°52' E 031°03'  
Track history (hours):
 
Tides and Currents Weather Stations Pressure Air Temp Water Temp Dewpoint Dewpoint Depression Visibility Wind Speed Wind Dir Waves Ship Positions

M\v Black Rhino

Last reported at 2016-Jun-29 03:31 UTC. Time now 2016-Jun-29 03:50 UTC.
Position S 29°52' E 031°03'.

Length 100 m; draft 4.6 m.

Type: Ship. MMSI: 538090408.

Date/timePositionNaut miles runAvg speedWind from/ knotsBaromVisibWave heightAir tempDewpointWater temp
2016-Jun-29 03:31S 29°52' E 031°03'0 0.0
2016-Jun-29 02:31S 29°52' E 031°03'4 3.8
2016-Jun-29 01:33S 29°50' E 031°05'3 2.9
2016-Jun-29 00:25S 29°48' E 031°09'1 1.3
2016-Jun-28 23:33S 29°49' E 031°09'3 3.0
2016-Jun-28 22:33S 29°48' E 031°06'3 3.3
2016-Jun-28 21:33S 29°45' E 031°07'0 0.1
2016-Jun-28 20:33S 29°45' E 031°07'0 0.0
2016-Jun-28 19:33S 29°45' E 031°07'0 0.0
2016-Jun-28 18:33S 29°45' E 031°07'0 0.0
2016-Jun-28 17:33S 29°45' E 031°07'1 1.0
2016-Jun-28 16:34S 29°46' E 031°07'1 0.5
2016-Jun-28 15:33S 29°46' E 031°07'0 0.4
2016-Jun-28 14:33S 29°46' E 031°07'6 6.4
2016-Jun-28 13:33S 29°45' E 031°14'1111.0
2016-Jun-28 12:33S 29°36' E 031°23'1111.0
2016-Jun-28 11:33S 29°29' E 031°32'1111.3
2016-Jun-28 10:33S 29°22' E 031°42'  
2016-Jun-24 12:07S 29°52' E 031°03'0 0.0
2016-Jun-24 11:31S 29°52' E 031°03'0 0.0
2016-Jun-24 10:31S 29°52' E 031°03'0 0.0
2016-Jun-24 09:31S 29°52' E 031°03'0 0.0
2016-Jun-24 08:31S 29°52' E 031°03'0 0.0
2016-Jun-24 07:31S 29°52' E 031°03'0 0.0
2016-Jun-24 04:31S 29°52' E 031°03'0 0.0
2016-Jun-24 03:31S 29°52' E 031°03'0 0.0
2016-Jun-24 02:25S 29°52' E 031°03'0 0.0
2016-Jun-24 01:28S 29°52' E 031°03'0 0.0
2016-Jun-24 00:31S 29°52' E 031°03'0 0.0
2016-Jun-23 23:31S 29°52' E 031°03'0 0.0
2016-Jun-23 22:31S 29°52' E 031°03'0 0.0
2016-Jun-23 21:31S 29°52' E 031°03'0 0.0
2016-Jun-23 20:28S 29°52' E 031°03'0 0.0
2016-Jun-23 19:31S 29°52' E 031°03'0 0.0
2016-Jun-23 18:31S 29°52' E 031°03'0 0.0
2016-Jun-23 17:31S 29°52' E 031°03'0 0.0
2016-Jun-23 16:31S 29°52' E 031°03'0 0.0
2016-Jun-23 15:31S 29°52' E 031°03'0 0.0
2016-Jun-23 14:31S 29°52' E 031°03'0 0.0
2016-Jun-23 13:31S 29°52' E 031°03'0 0.0
2016-Jun-23 12:31S 29°52' E 031°03'0 0.0
2016-Jun-23 11:31S 29°52' E 031°03'0 0.0
2016-Jun-23 10:31S 29°52' E 031°03'0 0.0
2016-Jun-23 09:31S 29°52' E 031°03'0 0.0
2016-Jun-23 08:31S 29°52' E 031°03'0 0.0
2016-Jun-23 07:31S 29°52' E 031°03'0 0.0
2016-Jun-23 05:31S 29°52' E 031°03'0 0.0
2016-Jun-23 04:31S 29°52' E 031°03'0 0.0
2016-Jun-23 03:31S 29°52' E 031°03'0 0.0
2016-Jun-23 02:31S 29°52' E 031°03'0 0.0
2016-Jun-23 01:31S 29°52' E 031°03'0 0.0
2016-Jun-23 00:31S 29°52' E 031°03'0 0.0
2016-Jun-22 23:31S 29°52' E 031°03'0 0.0
2016-Jun-22 22:31S 29°52' E 031°03'0 0.0
2016-Jun-22 21:31S 29°52' E 031°03'0 0.0
2016-Jun-22 20:31S 29°52' E 031°03'0 0.0
2016-Jun-22 19:31S 29°52' E 031°03'0 0.0
2016-Jun-22 18:31S 29°52' E 031°03'0 0.0
2016-Jun-22 17:28S 29°52' E 031°03'0 0.0
2016-Jun-22 16:31S 29°52' E 031°03'0 0.0
2016-Jun-22 15:31S 29°52' E 031°03'0 0.0
2016-Jun-22 14:31S 29°52' E 031°03'0 0.0
2016-Jun-22 13:31S 29°52' E 031°03'0 0.0
2016-Jun-22 12:31S 29°52' E 031°03'0 0.0
2016-Jun-22 11:31S 29°52' E 031°03'0 0.0
2016-Jun-22 10:25S 29°52' E 031°03'0 0.0
2016-Jun-22 09:31S 29°52' E 031°03'0 0.0
2016-Jun-22 08:31S 29°52' E 031°03'0 0.0
2016-Jun-22 07:31S 29°52' E 031°03'0 0.0
2016-Jun-22 06:34S 29°52' E 031°03'0 0.0
2016-Jun-22 05:31S 29°52' E 031°03'0 0.0
2016-Jun-22 04:31S 29°52' E 031°03'0 0.0
2016-Jun-22 03:31S 29°52' E 031°03'0 0.0
2016-Jun-22 02:28S 29°52' E 031°03'0 0.0
2016-Jun-22 01:31S 29°52' E 031°03'0 0.0
2016-Jun-22 00:31S 29°52' E 031°03'0 0.0
2016-Jun-21 23:31S 29°52' E 031°03'0 0.0
2016-Jun-21 22:31S 29°52' E 031°03'0 0.0
2016-Jun-21 21:31S 29°52' E 031°03'0 0.0
2016-Jun-21 20:31S 29°52' E 031°03'0 0.0
2016-Jun-21 19:31S 29°52' E 031°03'0 0.0
2016-Jun-21 18:31S 29°52' E 031°03'0 0.0
2016-Jun-21 17:31S 29°52' E 031°03'0 0.0
2016-Jun-21 16:31S 29°52' E 031°03'0 0.0
2016-Jun-21 15:31S 29°52' E 031°03'0 0.0
2016-Jun-21 14:31S 29°52' E 031°03'0 0.0
2016-Jun-21 13:31S 29°52' E 031°03'0 0.0
2016-Jun-21 12:31S 29°52' E 031°03'0 0.0
2016-Jun-21 11:25S 29°52' E 031°03'0 0.0
2016-Jun-21 10:31S 29°52' E 031°03'0 0.0
2016-Jun-21 09:31S 29°52' E 031°03'0 0.0
2016-Jun-21 08:31S 29°52' E 031°03'0 0.0
2016-Jun-21 07:31S 29°52' E 031°03'0 0.0
2016-Jun-21 04:31S 29°52' E 031°03'0 0.0
2016-Jun-21 03:31S 29°52' E 031°03'0 0.0
2016-Jun-21 02:25S 29°52' E 031°03'0 0.0
2016-Jun-21 01:31S 29°52' E 031°03'0 0.0
2016-Jun-21 00:31S 29°52' E 031°03'0 0.0
2016-Jun-20 23:31S 29°52' E 031°03'0 0.0
2016-Jun-20 22:31S 29°52' E 031°03'0 0.0
2016-Jun-20 21:31S 29°52' E 031°03'0 0.0
2016-Jun-20 20:31S 29°52' E 031°03'0 0.0
2016-Jun-20 19:31S 29°52' E 031°03'0 0.0
2016-Jun-20 18:31S 29°52' E 031°03'0 0.0
2016-Jun-20 17:31S 29°52' E 031°03'0 0.0
2016-Jun-20 16:31S 29°52' E 031°03'0 0.0
2016-Jun-20 15:31S 29°52' E 031°03'0 0.0
2016-Jun-20 14:34S 29°52' E 031°03'0 0.0
2016-Jun-20 13:31S 29°52' E 031°03'0 0.0
2016-Jun-20 12:31S 29°52' E 031°03'0 0.0
2016-Jun-20 11:31S 29°52' E 031°03'0 0.0
2016-Jun-20 10:31S 29°52' E 031°03'0 0.0
2016-Jun-20 09:31S 29°52' E 031°03'0 0.0
2016-Jun-20 08:31S 29°52' E 031°03'0 0.0
2016-Jun-20 07:31S 29°52' E 031°03'0 0.0
2016-Jun-20 06:31S 29°52' E 031°03'0 0.0
2016-Jun-20 05:31S 29°52' E 031°03'0 0.0
2016-Jun-20 04:31S 29°52' E 031°03'0 0.0
2016-Jun-20 03:31S 29°52' E 031°03'0 0.0
2016-Jun-20 02:31S 29°52' E 031°03'0 0.0
2016-Jun-20 01:31S 29°52' E 031°03'0 0.0
2016-Jun-20 00:31S 29°52' E 031°03'0 0.0
2016-Jun-19 23:31S 29°52' E 031°03'0 0.0
2016-Jun-19 22:31S 29°52' E 031°03'0 0.0
2016-Jun-19 21:31S 29°52' E 031°03'0 0.0
2016-Jun-19 20:31S 29°52' E 031°03'0 0.0
2016-Jun-19 19:31S 29°52' E 031°03'0 0.0
2016-Jun-19 18:31S 29°52' E 031°03'0 0.0
2016-Jun-19 17:31S 29°52' E 031°03'0 0.0
2016-Jun-19 16:31S 29°52' E 031°03'0 0.0
2016-Jun-19 15:31S 29°52' E 031°03'0 0.0
2016-Jun-19 14:31S 29°52' E 031°03'0 0.0
2016-Jun-19 13:31S 29°52' E 031°03'0 0.0
2016-Jun-19 12:31S 29°52' E 031°03'0 0.0
2016-Jun-19 11:31S 29°52' E 031°03'0 0.0
2016-Jun-19 10:31S 29°52' E 031°03'0 0.0
2016-Jun-19 09:31S 29°52' E 031°03'0 0.0
2016-Jun-19 08:31S 29°52' E 031°03'0 0.0
2016-Jun-19 07:31S 29°52' E 031°03'0 0.0
2016-Jun-19 06:31S 29°52' E 031°03'0 0.0
2016-Jun-19 05:31S 29°52' E 031°03'0 0.0
2016-Jun-19 04:31S 29°52' E 031°03'  

Dump ship's entire track history